Melvin, TX (76858)

5:54 PM CDT on September 24, 2016 (GMT -0500)
The Hunt'n Place | | Change Station

Elev 1916 ft 31.24 °N, 99.44 °W | Updated 1 minute ago

Partly Cloudy
Partly Cloudy
89.4 °F
Feels Like 92 °F
N
6.3
Wind Variable Wind from SSE

Today
High -- | Low -- °F
--% Chance of Precip.
Yesterday
High -- | Low -- °F
Precip. -- in
Pressure 29.78 in
Visibility 10.0 miles
Clouds Few 6000 ft
Heat Index 92 °F
Dew Point 66 °F
Humidity 47%
Rainfall 0.00 in
Snow Depth Not available.
7:27 AM 7:31 PM
Waning Crescent, 34% visible
METAR KJCT 242251Z AUTO 14015KT 10SM FEW060 33/18 A2989 RMK AO2 SLP082 T03280178
Pressure 29.78 in
Visibility 10.0 miles
Clouds Few 6000 ft
Heat Index 92 °F
Dew Point 66 °F
Humidity 47%
Rainfall 0.00 in
Snow Depth Not available.
7:27 AM 7:31 PM
Waning Crescent, 34% visible
METAR KJCT 242251Z AUTO 14015KT 10SM FEW060 33/18 A2989 RMK AO2 SLP082 T03280178

10-Day Weather Forecast

Almanac

Astronomy

Sep. 24, 2016 Rise Set
Actual Time
Civil Twilight
Nautical Twilight
Astronomical Twilight
Moon
Length of Visible Light
Length of Day
Tomorrow will be .
, % of the Moon is Illuminated

Today's Extremes

State Highs State Lows

Community

WunderPhotos

Upload Photos

1,941,451 photos uploaded!

WunderBlog® & News

Nearby

Air Quality

  Air Quality AQ Index Pollutant
Not available.

Snow Depth

Station Depth Elevation

Earthquake Activity

City Distance Mag. Time & Date
Minimum magnitude displayed is 2.5.

Coastal Water Temperatures

Place Temperature

Stations

Nearby Weather Stations

Station Location Temp. Windchill Dew Point Humidity Wind Precip. Elev Updated Type
                   

Watches & Warnings

There are currently no watches in effect.